Last 365 Observations

Top Stn/Summit - 11,053ft

Daily Data | America/Los_Angeles
as of 4/17/24 9:25 AM PDT
Date Daily Max Temp (°F) Time of Max Temp Daily Min Temp (°F) Time of Min Temp Temp (°F) Daily Max Wind (mph) Time of Max Wind Max Wind Dir (°) Wind Spd (mph) Dew Pt (°F) Max RH (%) Min RH (%) Max Wet Bulb Temp (°F) Min Wet Bulb Temp (°F) WetB Hrs <28F (hrs) Hrs <= 32F (hrs) Heat Index Max Time Min Wind Chill (°F) Wind Chill Time MinBV Day (V)
4/16/24 41.1 1130 24.4 0200 32.9 36.6 1509 SSW | 206 12.3 16.0 94 14 32.8 21.7 9.0 6.4 - 13.3 0217 12.2
4/15/24 26.6 2310 14.2 0346 20.4 63.4 0656 E | 87 22.3 18.2 98 74 25.0 13.8 - - - -11.3 0656 12.2
4/14/24 19.7 1539 8.3 0529 14.7 43.8 0301 S | 191 23.8 13.2 96 90 19.4 8.1 - - - -17.7 0301 12.2
4/13/24 26.6 1457 10.3 2347 19.7 61.8 1920 S | 186 36.8 14.4 100 54 24.8 10.0 - - - -15.7 2222 12.2
4/12/24 32.0 0927 22.1 2245 28.4 60.6 1539 S | 191 36.5 23.3 100 57 30.0 22.0 15.4 - - 0.9 2236 12.2
4/11/24 40.6 1129 30.4 2217 35.6 40.0 1548 S | 174 14.0 19.3 78 33 33.2 26.4 2.5 3.9 - 15.6 2215 12.2
4/10/24 41.9 1308 31.8 0126 35.8 26.8 1543 SSW | 199 10.3 13.1 65 16 34.2 24.3 9.7 0.1 - 22.5 0032 12.2
4/9/24 35.4 1750 17.1 0102 29.3 45.3 0106 NNW | 346 23.1 4.5 58 8 29.0 13.9 20.0 15.7 - -5.6 0102 12.2
4/8/24 17.5 0059 8.7 0257 12.3 57.4 1848 NNW | 346 41.5 9.9 95 47 16.1 8.6 - - - -19.6 0643 12.2
4/7/24 19.5 1738 6.9 0643 12.5 59.2 2247 NNW | 347 24.9 10.9 96 90 19.2 6.8 - - - -17.3 0025 12.2
4/6/24 13.0 1742 2.1 0120 8.7 54.7 1343 S | 190 21.5 6.6 94 88 12.7 2.3 - - - -21.5 0310 12.2
4/5/24 8.6 1432 1.7 0302 4.7 61.7 1410 SSW | 193 29.8 2.2 91 88 8.4 1.8 - - - -27.6 0134 12.2
4/4/24 23.0 0319 1.9 0056 13.6 95.7 0547 SW | 216 47.5 12.0 99 88 22.8 2.1 - - - -28.9 2011 12.2
4/3/24 31.5 1042 22.8 0015 27.6 65.1 1908 S | 186 32.4 20.9 100 44 28.9 22.5 22.7 - - -0.8 0037 12.2
4/2/24 36.5 1740 19.6 0105 28.4 69.1 0343 NNW | 334 26.5 16.5 92 32 30.0 19.0 17.4 15.3 - -4.8 0101 12.2
4/1/24 19.8 0101 9.9 0503 14.8 78.1 1909 NW | 321 48.2 13.4 97 90 19.2 9.7 - - - -20.1 0416 12.2
3/31/24 20.4 1747 10.3 0506 14.3 71.8 2344 NNW | 347 33.3 12.9 97 92 20.2 10.1 - - - -17.9 2047 12.2
3/30/24 21.0 1241 10.0 0708 14.5 81.2 0644 SSW | 201 24.3 13.1 97 92 20.7 9.8 - - - -21.3 0644 12.2
3/29/24 16.8 1622 11.8 0504 14.6 55.9 0813 SSW | 195 31.0 13.2 95 92 16.5 11.6 - - - -14.3 0813 12.2
3/28/24 19.0 1426 15.4 0059 17.4 88.4 0413 SSW | 206 44.5 16.4 96 94 18.6 15.0 - - - -11.5 0645 12.2
3/27/24 21.4 1521 12.6 0607 18.0 68.2 1422 S | 184 39.1 17.0 97 92 21.1 12.3 - - - -10.4 0542 12.2
3/26/24 22.6 1656 11.3 0722 16.5 39.8 0242 S | 184 18.1 15.2 98 92 22.3 11.1 - - - -10.2 0959 12.2
3/25/24 20.1 1607 7.3 0539 13.3 39.2 1814 SE | 138 19.0 11.6 96 90 19.7 7.2 - - - -15.1 0612 12.2
3/24/24 18.4 1550 8.4 0528 11.3 57.0 1721 NNW | 347 34.3 9.4 96 90 18.0 8.2 - - - -19.9 0352 12.2
3/23/24 18.7 0107 9.5 0058 13.8 87.6 0457 SSW | 196 40.6 12.1 95 90 18.3 9.2 - - - -18.0 0002 12.2
3/22/24 114.3 0842 -40.0 1322 22.2 69.9 1954 SSW | 200 47.8 19.5 100 3 98.3 -43.8 13.7 13.7 0842 -90.5 1352 12.2
3/21/24 - 0305 -33.8 1044 125.3 48.8 0124 SSW | 194 27.0 - 100 5 - -36.3 1.9 1.9 0305 -72.5 1044 12.2
3/20/24 - 0254 -10.5 2123 109.0 53.3 0036 S | 191 21.2 - 100 35 - -11.6 1.1 1.1 0254 -43.2 2123 12.2
3/19/24 - 0708 51.6 0039 - 35.9 0124 NNW | 333 13.7 - 88 42 - 41.9 0.0 0.0 0710 - - 12.2
3/18/24 - 0846 80.0 0516 - 46.0 2114 N | 349 30.0 - 90 51 - 66.9 0.0 0.0 0849 - - 12.2
3/17/24 - 0058 -10.3 0739 - 59.7 0110 NNW | 345 40.5 - 91 39 - -11.2 0.8 0.8 0443 -41.4 0739 12.2
3/16/24 - 0307 61.8 0805 - 66.6 0031 NNW | 334 38.6 - 90 44 - 50.5 0.0 0.0 0308 - - 12.2
3/15/24 - 1751 -34.2 1230 - 86.8 0830 ENE | 75 55.0 - 91 39 - -30.4 0.6 0.6 1045 -83.3 1230 12.2
3/14/24 - 0951 - 0518 - 144.2 0604 NNW | 341 71.7 - 100 3 - - 1.2 1.0 0951 - 0538 12.2
3/13/24 - 0027 - 1343 - 100.0 0014 N | 349 39.7 - 88 28 - - 0.4 0.3 2300 - 1341 12.2
3/12/24 - 1951 -28.8 1133 98.6 69.2 1550 S | 189 39.7 79.6 83 35 - -28.9 0.5 0.4 1951 -68.4 1133 12.2
3/11/24 - 0423 - 0954 - 64.2 0425 S | 188 38.6 - 100 3 - - 2.0 1.9 0423 - 0804 12.2
3/10/24 - 2352 -58.1 2042 104.8 68.0 1259 S | 187 47.9 86.1 64 30 - - 1.3 1.2 2352 - 2054 12.2
3/9/24 121.9 0645 108.9 1545 116.0 58.3 1722 SSW | 192 41.6 - 60 56 105.5 93.4 0.0 0.0 0418 - - 12.2
3/8/24 - 0943 111.9 0026 - 55.2 0443 N | 349 28.8 - 91 58 - 97.7 0.0 0.0 0943 - - 12.2
3/7/24 - 0152 56.3 1012 - 56.0 2003 NNW | 347 19.8 - 89 43 - 46.0 0.0 0.0 0058 - - 12.2
3/6/24 - 2327 -49.2 0906 - 43.9 0011 S | 181 18.1 - 88 3 - - 0.0 0.0 2327 -77.6 0906 12.2
3/5/24 - 2035 7.2 0917 - 56.2 1101 S | 176 38.1 - 100 3 - 4.0 20.6 20.6 2035 -21.0 0917 12.2
3/4/24 15.2 2025 5.5 0754 10.6 78.0 0003 S | 189 41.1 8.8 94 89 14.9 5.5 - - - -24.8 0002 12.2
3/3/24 9.7 0001 5.8 0419 7.9 99.4 1948 S | 186 47.6 5.8 92 90 9.5 5.7 - - - -28.2 0458 12.2
3/2/24 15.6 0108 5.4 1810 9.2 0.5 0351 S | 182 0.4 7.2 95 90 15.3 5.4 - - - 5.4 1810 12.2
3/1/24 18.8 1404 14.3 1922 16.1 113.8 1650 SSW | 198 51.9 15.0 97 94 18.5 14.0 - - - -17.0 1657 12.2
2/29/24 20.8 1258 15.8 0549 17.8 96.4 1717 S | 181 55.4 16.8 98 95 20.5 15.5 - - - -12.1 2240 12.2
2/28/24 21.8 1148 15.9 0353 19.3 49.1 1728 SSW | 203 32.0 16.3 99 78 21.5 14.8 - - - -5.4 2358 12.2
2/27/24 19.6 2104 12.4 0714 16.6 80.3 0035 S | 187 26.4 15.0 96 80 19.0 12.1 - - - -14.0 0535 12.2
2/26/24 20.6 1643 17.0 0651 18.8 90.2 1326 S | 191 57.5 17.9 98 96 20.4 16.7 - - - -11.1 2344 12.2
2/25/24 24.6 1403 17.9 0525 20.9 51.5 2346 S | 184 31.4 13.0 100 50 22.0 15.0 - - - -5.1 2358 12.2
2/24/24 26.0 1115 19.2 2323 21.7 32.4 2207 SSW | 199 15.2 18.9 97 79 25.2 18.1 - - - 0.2 2146 12.2
2/23/24 27.2 1343 13.7 0058 19.6 29.2 0849 NW | 322 12.5 18.6 100 93 27.0 13.4 - - - -2.4 0843 12.2
2/22/24 19.6 1549 7.1 0512 13.2 26.4 0803 SSW | 197 11.1 11.4 96 90 19.2 6.9 - - - -13.0 0516 12.2
2/21/24 18.7 1454 9.6 2110 13.8 54.8 1252 S | 191 28.1 12.2 97 90 18.4 9.3 - - - -14.4 0709 12.2
2/20/24 21.8 1330 13.1 0149 16.9 71.1 2152 SSW | 198 30.6 15.8 98 93 21.6 12.8 - - - -11.1 0122 12.2
2/19/24 22.8 0100 13.6 2337 18.7 111.8 0526 SSW | 194 48.9 17.7 98 93 22.5 13.2 - - - -11.8 2058 12.2
2/18/24 21.0 1531 14.3 0907 18.5 72.0 0226 S | 189 43.0 17.4 98 93 20.7 13.9 - - - -10.9 0901 12.2
2/17/24 21.8 0001 17.2 1907 19.6 74.1 2238 SSW | 204 39.9 18.2 98 86 21.4 16.9 - - - -8.7 1355 12.2
2/16/24 24.9 1307 15.1 0054 21.0 37.7 1411 S | 183 18.9 18.3 98 82 23.9 14.6 - - - -5.1 0045 12.2
2/15/24 17.4 1511 12.6 0711 15.3 80.7 0705 SSW | 199 32.5 13.8 95 92 17.0 12.3 - - - -17.7 0705 12.2
2/14/24 17.8 1926 12.5 0022 15.5 77.9 1325 SSW | 195 46.9 12.0 95 64 17.5 11.8 - - - -13.5 1210 12.2
2/13/24 20.3 1233 11.2 2307 16.5 57.4 1530 SSW | 195 32.2 7.3 98 40 16.6 10.9 - - - -12.8 2240 12.2
2/12/24 27.3 1051 17.7 1938 21.8 36.0 1438 SSW | 197 22.7 -1.5 71 7 21.2 14.7 - - - -1.5 2140 12.2
2/11/24 27.5 0353 20.0 2235 24.6 36.4 2222 N | 350 19.6 6.5 63 12 22.3 16.0 - - - 0.3 2153 12.2
2/10/24 23.4 2156 -0.1 0645 8.9 99.4 0005 N | 350 51.0 -5.2 94 5 16.2 0.2 - - - -36.2 0644 12.2
2/9/24 15.4 1558 4.2 2359 9.8 97.6 2321 NNW | 341 24.8 7.8 94 89 15.0 4.3 - - - -31.8 2337 12.2
2/8/24 16.2 1344 6.6 0253 10.4 62.3 0326 ESE | 120 21.9 8.5 95 90 15.8 6.5 - - - -23.0 0326 12.2
2/7/24 17.0 1226 7.7 2359 12.4 76.1 1024 S | 185 35.2 10.7 96 90 16.7 7.5 - - - -18.1 2304 12.2
2/6/24 21.4 1150 12.6 2153 16.3 29.1 0808 S | 182 13.0 15.1 98 93 21.1 12.3 - - - -7.8 2349 12.2
2/5/24 17.8 1254 12.1 0707 15.2 109.0 0025 SSW | 207 33.6 13.8 96 92 17.5 11.8 - - - -17.5 0447 12.2
2/4/24 22.4 1157 16.4 2357 19.2 124.9 2210 SSW | 196 40.1 18.2 97 94 22.1 16.0 - - - -14.7 2308 12.2
2/3/24 17.0 1420 6.6 0646 11.4 60.9 0125 S | 185 27.9 9.5 95 89 16.6 6.5 - - - -21.5 0125 12.2
2/2/24 16.0 1252 8.6 2354 11.8 63.6 1237 SSW | 194 40.6 10.0 95 90 15.6 8.4 - - - -20.7 2253 12.2
2/1/24 21.4 0306 11.8 2358 17.0 81.0 0553 SW | 219 35.3 15.6 97 92 21.0 11.5 - - - -11.4 2357 12.2
1/31/24 26.9 0036 19.2 2359 23.0 85.9 1759 S | 179 45.9 15.7 97 49 23.1 18.8 - - - -6.6 1936 12.2
1/30/24 33.9 1042 25.5 2121 29.9 49.4 2127 SSW | 194 24.8 14.1 84 31 27.5 21.8 - 17.3 - 5.2 2127 12.2
1/29/24 37.8 1122 28.6 0015 33.2 37.0 0042 NNW | 331 10.7 17.6 76 35 30.7 25.7 12.1 7.4 - 11.9 0050 12.2
1/28/24 36.4 0016 28.9 0742 32.5 37.6 2305 NNW | 336 15.4 21.9 78 50 30.9 26.5 7.9 10.2 - 12.6 2305 12.2
1/27/24 39.0 1232 30.7 0025 34.8 24.4 0132 N | 350 7.6 21.5 79 43 32.8 28.4 0.0 2.9 - 17.8 0016 12.2
1/26/24 31.1 1339 13.3 0001 25.6 33.0 2159 E | 84 12.7 24.4 100 78 31.0 13.0 14.3 - - -6.2 0104 12.2
1/25/24 21.5 0005 11.1 0827 15.2 65.5 0249 SSE | 168 20.4 13.8 98 92 21.2 10.8 - - - -12.4 0736 12.2
1/24/24 26.5 1430 14.6 0001 21.6 60.6 2310 S | 191 33.8 21.0 100 94 26.3 14.3 - - - -9.2 0428 12.2
1/23/24 21.5 1433 13.8 2055 17.0 29.4 0804 ENE | 78 10.9 15.8 97 93 21.2 13.5 - - - -4.9 0804 12.2
1/22/24 30.6 1214 18.9 0057 22.6 66.8 0048 S | 182 24.3 22.0 100 96 30.5 18.5 20.6 - - -6.7 0048 12.2
1/21/24 25.0 1229 15.3 0116 20.4 69.9 2152 S | 184 32.8 19.6 99 94 24.8 15.0 - - - -8.6 0056 12.2
1/20/24 21.8 1244 15.6 2356 19.3 76.6 1041 SSW | 194 46.7 18.3 97 94 21.5 15.2 - - - -9.8 2112 12.2
1/19/24 30.0 0721 17.6 2104 24.8 54.1 2212 S | 188 30.9 14.6 98 43 25.5 17.2 - - - -6.6 2102 12.2
1/18/24 38.1 1314 25.2 0047 31.6 30.2 2343 SSW | 195 9.0 16.3 68 32 32.0 19.9 16.6 16.6 - 12.0 2358 12.2
1/17/24 27.2 2358 15.6 0847 19.5 93.5 0506 S | 188 41.4 17.5 98 43 24.0 15.2 - - - -10.1 0846 12.2
1/16/24 25.1 0915 20.9 2128 22.4 74.0 2055 S | 182 39.5 16.3 99 53 22.8 18.7 - - - -4.4 2055 12.2
1/15/24 26.9 1438 18.0 0348 22.0 46.3 0659 SSE | 147 16.0 20.0 99 72 26.7 17.7 - - - -3.7 0659 12.2
1/14/24 21.7 1351 17.4 0104 19.2 77.2 0031 S | 174 31.0 18.2 97 95 21.4 17.1 - - - -10.3 0031 12.2
1/13/24 23.8 0336 16.6 1935 19.8 103.5 2146 SSW | 196 38.1 18.8 100 86 23.3 16.3 - - - -12.7 1942 12.2
1/12/24 21.7 0530 13.9 1938 17.4 58.4 1427 S | 186 27.5 5.8 97 35 20.8 12.8 - - - -10.8 1839 12.2
1/11/24 20.2 2344 -3.2 0735 7.0 75.8 0001 S | 184 31.7 -1.2 92 36 16.0 -2.7 - - - -37.3 0714 12.2
1/10/24 12.4 1608 5.9 0607 9.9 100.4 1621 SSW | 199 45.2 7.8 92 88 12.1 5.8 - - - -24.0 2352 12.2
1/9/24 23.1 0005 8.8 2359 17.5 64.1 1410 S | 189 34.2 10.9 98 45 19.8 8.6 - - - -19.1 2347 12.2
1/8/24 24.8 2203 -2.3 0005 14.8 81.5 0656 E | 84 44.9 5.1 97 10 21.0 -1.9 - - - -32.8 0012 12.2
1/7/24 1.3 1500 -3.6 0516 -1.3 52.8 0249 E | 81 30.9 -4.6 87 85 1.5 -3.1 - - - -35.4 0249 12.2
1/6/24 19.1 0111 -0.1 2359 9.5 113.8 1340 S | 179 36.8 0.0 90 27 14.2 0.1 - - - -30.9 2354 12.2
1/5/24 19.8 0329 9.4 0944 14.1 77.0 0915 NNW | 348 36.2 2.5 96 24 15.8 9.2 - - - -21.1 0943 12.2
1/4/24 22.3 2236 7.6 0255 12.8 55.2 1545 ENE | 70 31.3 4.9 92 27 16.9 7.5 - - - -20.7 0004 12.2
1/3/24 13.4 0034 7.1 0706 9.6 68.9 2217 E | 100 31.7 7.3 93 89 13.1 6.9 - - - -22.4 0807 12.2
1/2/24 18.6 1152 13.3 2357 16.2 57.5 2044 SW | 216 36.8 11.9 96 69 16.7 13.0 - - - -12.2 2316 12.2
1/1/24 21.0 1729 13.8 0602 17.3 19.9 0130 SW | 215 5.6 10.5 91 60 19.3 12.5 - - - -1.6 0342 12.2
12/31/23 23.2 0954 10.7 0100 17.9 30.5 1236 SSW | 205 9.8 -4.5 98 4 18.0 10.4 - - - -4.2 1531 12.2
12/30/23 21.1 1257 11.2 2344 17.3 53.5 0508 S | 190 17.8 16.1 98 90 20.8 10.9 - - - -7.5 0508 12.2
12/29/23 29.6 0030 17.5 2359 26.0 59.3 2101 SSW | 208 35.3 11.2 92 28 25.1 16.8 - - - -5.9 2359 12.2
12/28/23 31.1 1407 22.6 0234 27.2 45.3 0127 S | 180 22.2 19.3 100 45 27.4 22.2 - - - 2.3 0237 12.2
12/27/23 26.9 0238 18.8 2218 23.0 66.4 1544 S | 188 41.6 1.5 98 28 23.2 15.2 - - - -2.9 1720 12.2
12/26/23 29.9 0050 23.7 1630 26.8 53.8 1340 S | 188 23.9 8.6 89 24 26.2 19.2 - - - 4.0 1603 12.2
12/25/23 31.2 1227 23.9 0811 27.2 28.0 0741 NNW | 340 11.6 17.9 96 41 27.8 20.7 - - - 7.8 0741 12.2
12/24/23 30.1 1438 16.0 0334 23.6 38.0 1133 E | 94 14.5 8.8 95 27 24.4 15.2 - - - -1.1 0338 12.2
12/23/23 20.3 1344 14.6 0144 17.0 30.1 0558 ESE | 102 11.2 15.9 97 91 20.0 14.3 - - - -6.0 0048 12.2
12/22/23 22.5 1435 17.0 0520 20.2 31.0 2214 ENE | 77 11.7 19.5 98 95 22.2 16.6 - - - -1.0 2359 12.2
12/21/23 25.4 1215 20.8 2351 22.6 32.6 0957 NNW | 330 13.8 22.3 100 97 25.3 20.5 - - - 3.7 0957 12.2
12/20/23 27.9 1249 20.1 0813 22.7 51.7 0004 SSW | 210 13.6 22.3 100 96 27.8 19.7 - - - -1.0 0009 12.2
12/19/23 25.6 1024 21.2 1935 23.7 78.7 1234 S | 170 43.4 23.4 100 97 25.5 20.9 - - - -1.6 2356 12.2
12/18/23 32.7 0001 22.8 0201 26.9 76.1 1558 SSW | 193 47.8 25.2 100 29 28.6 22.4 23.0 23.9 - 1.6 0200 12.2
12/17/23 40.2 1038 32.3 1642 36.2 39.0 2018 SSW | 197 18.6 6.6 42 14 31.7 24.3 12.1 0.0 - 19.6 2356 12.2
12/16/23 39.2 1454 29.0 0420 33.4 35.6 0305 SSW | 193 21.0 -5.5 26 11 29.0 21.0 23.3 8.0 - 13.0 0352 12.2
12/15/23 40.6 1042 28.7 0159 35.6 25.7 0126 SSW | 201 9.2 -1.5 28 6 30.8 21.1 15.5 5.2 - 14.4 0159 12.2
12/14/23 31.2 2157 23.0 0239 27.3 22.8 1301 SSW | 206 10.7 -8.5 36 7 23.4 17.2 - - - 8.5 0451 12.2
12/13/23 26.2 2341 12.6 0353 18.9 48.4 0023 NNW | 345 24.1 5.9 92 22 19.6 12.1 - - - -12.1 0007 12.2
12/12/23 26.4 0444 13.0 2327 19.8 47.9 2333 N | 350 21.4 9.3 99 31 21.2 12.6 - - - -12.2 2333 12.2
12/11/23 30.6 0029 22.0 2220 26.8 51.2 1340 S | 190 26.4 2.7 69 13 23.8 17.9 - - - 6.7 1811 12.2
12/10/23 39.2 1008 29.8 2337 34.7 34.1 1708 SSW | 192 17.8 6.6 64 10 31.5 22.2 15.4 4.9 - 14.6 2319 12.2
12/9/23 37.4 1453 26.9 0404 32.2 43.5 1945 NNW | 346 13.8 8.5 63 22 30.3 20.3 16.8 9.4 - 14.9 2035 12.2
12/8/23 29.1 2355 8.6 0303 17.4 35.0 0502 SSW | 196 11.8 7.2 94 20 21.8 8.4 - - - -13.3 0502 12.2
12/7/23 19.1 1118 9.8 2359 15.9 92.0 0127 S | 188 48.7 14.4 96 90 18.8 9.5 - - - -14.7 0802 12.2
12/6/23 30.7 0005 17.9 2241 24.3 100.7 2310 S | 169 48.6 17.6 97 52 26.0 17.5 - - - -11.1 2238 12.2
12/5/23 36.2 1230 30.3 2358 33.5 35.5 1319 SSW | 193 16.5 15.7 54 41 29.9 25.6 11.1 6.3 - 15.4 2356 12.2
12/4/23 32.1 0956 26.2 0659 28.9 32.0 1927 NW | 324 14.2 13.3 67 35 26.5 21.5 - 23.9 - 10.9 2003 12.2
12/3/23 30.1 1032 17.6 0133 26.5 52.9 0019 SSW | 199 17.7 11.1 89 28 25.9 16.5 - - - -6.0 0019 12.2
12/2/23 22.0 1514 15.0 0504 18.1 54.2 2129 S | 187 28.2 11.7 99 46 20.4 13.4 - - - -7.4 2129 12.2
12/1/23 20.2 1328 12.4 0529 16.0 55.3 0029 SSW | 203 24.2 12.9 97 66 19.8 12.0 - - - -13.7 0358 12.2
11/30/23 17.5 1339 13.0 2356 15.0 50.2 2340 SSW | 196 25.9 13.5 95 92 17.1 12.6 - - - -12.9 2355 12.2
11/29/23 24.0 1400 13.9 0531 18.2 43.0 0443 S | 189 14.6 8.8 100 30 20.6 13.3 - - - -9.8 0526 12.2
11/28/23 26.6 0037 17.0 2239 21.6 44.0 1604 S | 191 24.4 -4.5 69 12 19.5 13.8 - - - -3.7 1647 12.2
11/27/23 26.8 2247 15.9 0136 22.0 45.0 0013 NW | 316 16.2 -16.2 38 10 19.1 12.0 - - - -5.5 0136 12.2
11/26/23 23.7 1356 15.4 2312 20.8 40.5 2358 NW | 322 24.0 -13.4 47 8 18.4 12.1 - - - -5.4 2313 12.2
11/25/23 20.1 2014 14.4 0001 17.1 30.2 1928 NW | 325 15.2 -8.5 61 13 14.9 10.7 - - - -3.2 1908 12.2
11/24/23 19.4 1402 8.2 0505 13.8 35.9 0800 ENE | 75 15.8 2.3 94 22 17.0 7.8 - - - -12.2 0756 12.2
11/23/23 32.9 0016 14.6 2333 24.2 46.9 1101 S | 186 20.3 18.2 100 39 27.3 14.2 - 23.0 - -6.3 2236 12.2
11/22/23 43.5 0336 32.4 2359 38.4 24.6 1203 SSW | 198 8.2 6.3 45 15 32.1 26.5 4.6 0.0 - 20.6 2359 12.2
11/21/23 44.1 2316 33.9 0001 39.8 28.3 0025 NNW | 346 9.2 -1.6 28 8 32.0 23.8 7.4 0.0 - 20.8 0001 12.2
11/20/23 33.9 2357 22.4 0054 29.3 93.7 0209 NNW | 340 53.5 -13.9 32 8 24.1 16.8 - 15.9 - -2.4 0054 12.2
11/19/23 29.2 1241 11.4 0625 22.8 112.2 0028 S | 179 46.0 0.2 98 15 22.1 11.2 - - - -18.9 0518 12.2
11/18/23 26.2 1303 21.3 0332 23.3 106.3 2354 SSE | 164 44.4 23.0 100 98 26.0 21.1 - - - -6.0 2354 12.2
11/17/23 24.9 1458 18.0 0306 21.8 47.0 2344 SW | 214 19.3 21.3 100 95 24.8 17.7 - - - 1.2 2344 12.2
11/16/23 30.7 1343 18.8 2304 25.3 63.2 0041 SSW | 194 21.4 25.1 100 95 30.6 18.4 19.8 - - 2.0 0636 12.2
11/15/23 32.6 1040 23.9 0416 27.5 68.2 2313 SSW | 201 31.5 19.6 100 32 30.8 19.5 18.1 23.8 - 4.4 2313 12.2
11/14/23 30.0 1307 20.9 0010 25.5 51.4 1321 SSW | 198 31.7 6.9 55 37 24.8 17.5 - - - -0.3 0001 12.2
11/13/23 28.2 1344 21.0 2347 24.5 62.3 0101 SSW | 194 41.0 7.8 64 38 23.8 17.7 - - - -0.3 2349 12.2
11/12/23 34.9 0005 23.1 2257 29.0 55.8 2327 S | 190 32.0 7.2 51 17 26.2 18.7 - 20.9 - 1.2 2254 12.2
11/11/23 36.7 1133 26.3 0458 31.6 26.8 0441 SSW | 196 14.2 9.5 59 25 29.3 22.2 23.1 9.5 - 10.9 0441 12.2
11/10/23 32.8 1429 23.6 0525 28.1 19.6 2355 SSW | 196 8.2 -0.9 48 12 26.5 17.1 - 22.1 - 9.7 0520 12.2
11/9/23 28.6 1410 15.8 0040 23.7 36.4 0211 NW | 324 16.6 -10.9 43 7 21.2 12.3 - - - -5.8 0047 12.2
11/8/23 17.2 1627 12.0 0704 14.8 66.3 0523 NNW | 342 46.7 9.4 95 41 16.1 11.7 - - - -15.6 0704 12.2
11/7/23 24.1 0008 15.0 2310 19.4 57.0 2355 NNW | 348 32.2 18.5 99 94 23.8 14.6 - - - -11.0 2355 12.2
11/6/23 29.0 0056 22.8 1313 25.8 68.8 1813 S | 188 42.0 25.1 100 78 28.5 22.4 23.6 - - 0.7 1316 12.2
11/5/23 37.2 1212 27.8 2359 31.6 70.5 1352 S | 183 49.6 20.6 94 38 32.8 24.6 14.6 15.8 - 7.0 2355 12.2
11/4/23 42.1 1325 31.3 2215 36.2 53.0 0057 S | 191 37.1 24.5 81 46 35.2 28.4 0.0 2.6 - 13.6 0057 12.2
11/3/23 43.9 1417 35.6 0054 39.1 33.6 1404 S | 190 14.7 17.8 68 17 36.6 26.4 2.4 0.0 - 22.6 0035 12.2
11/2/23 42.8 1329 36.5 0210 38.8 37.7 1203 S | 178 18.0 5.1 43 18 31.7 27.4 6.0 0.0 - 24.8 0210 12.2
11/1/23 44.5 1443 33.6 0226 38.4 19.8 0018 SSW | 193 14.1 0.2 23 5 32.0 24.4 11.4 0.0 - 26.1 0438 12.2
10/31/23 42.8 1350 33.3 0620 37.4 18.6 2025 NNW | 341 6.5 -3.8 22 10 31.5 24.2 15.5 0.0 - 24.5 0541 12.2
10/30/23 38.0 1512 29.1 0118 33.0 38.4 2131 NNW | 333 27.2 -13.1 21 3 28.0 20.0 - 9.3 - 13.1 0130 12.2
10/29/23 30.6 2354 13.8 0621 21.8 68.9 0629 NNW | 338 45.4 -11.2 40 4 21.2 9.3 - - - -14.4 0629 12.2
10/28/23 27.5 1158 10.7 2014 19.1 53.6 0028 E | 90 31.4 -1.0 93 15 21.2 9.8 - - - -15.7 2026 12.2
10/27/23 32.0 1630 18.3 0411 25.1 41.5 0351 S | 188 24.0 11.1 100 17 28.1 15.1 24.0 - - -3.5 0357 12.2
10/26/23 27.8 1754 21.5 0035 24.4 79.8 0602 S | 186 29.2 24.0 100 87 27.7 20.5 23.5 23.5 - -1.8 0729 12.2
10/25/23 33.6 1208 23.4 0042 28.6 79.0 1820 S | 178 48.1 22.3 100 44 29.5 23.1 17.8 19.3 - -1.1 0030 12.2
10/24/23 40.0 1428 27.7 0104 35.0 48.2 2345 SSW | 194 21.2 11.1 96 4 34.3 23.8 12.7 6.5 - 9.4 2336 12.2
10/23/23 30.7 1717 25.1 0405 27.9 58.0 1107 N | 349 31.4 27.6 100 86 30.6 24.9 12.7 - - 6.0 0513 12.2
10/22/23 33.2 1440 25.8 0030 30.2 60.9 1637 SSE | 160 32.8 30.0 100 87 32.9 25.7 5.6 19.3 - 8.4 1751 12.2
10/21/23 45.6 1309 32.8 0059 38.7 45.3 0056 S | 187 27.3 29.0 88 43 38.6 31.4 0.0 0.0 - 16.1 0056 12.2
10/20/23 47.4 1329 37.3 0057 42.2 44.0 1429 S | 173 24.6 26.5 82 42 39.6 33.4 0.0 0.0 - 24.7 0056 12.2
10/19/23 53.6 1612 40.6 0055 46.6 25.5 0006 S | 187 10.0 21.0 55 20 41.3 33.8 0.0 0.0 - 30.1 0054 12.2
10/18/23 51.0 1547 40.4 0230 46.3 37.4 2143 NNW | 336 14.9 17.9 47 17 40.0 30.9 0.0 0.0 - 30.4 0154 12.2
10/17/23 48.6 1513 38.3 0253 43.1 38.2 0114 SSW | 194 21.8 14.4 46 19 36.9 29.6 0.0 0.0 - 25.9 0123 12.2
10/16/23 48.4 1404 39.0 0048 43.1 38.5 1341 S | 191 27.6 21.3 56 15 39.8 30.0 0.0 0.0 - 26.7 0057 12.2
10/15/23 51.3 1306 37.2 0315 44.5 30.7 1516 S | 179 16.5 21.6 68 18 40.6 30.1 0.0 0.0 - 25.1 0314 12.2
10/14/23 43.0 1504 28.2 0543 35.6 52.3 1050 S | 190 30.6 14.8 75 15 34.2 23.1 10.3 7.9 - 10.0 0557 12.2
10/13/23 40.1 1247 27.6 0725 33.3 41.3 1500 S | 189 23.8 17.0 92 12 31.4 25.3 12.4 12.0 - 10.7 0003 12.2
10/12/23 36.0 1524 20.8 0109 30.1 33.9 0101 NNW | 342 12.4 7.1 89 9 30.3 18.6 17.7 16.2 - 2.7 0108 12.2
10/11/23 31.6 1716 19.2 2357 25.4 80.9 0554 S | 186 35.8 24.4 100 54 31.6 19.0 19.4 - - -1.7 2158 12.2
10/10/23 39.1 1447 27.8 0046 32.6 72.1 2337 S | 177 45.4 22.6 100 34 33.9 25.7 9.1 13.8 - 6.7 2330 12.2
10/9/23 43.4 1350 30.0 2345 37.8 61.2 2026 S | 187 36.0 28.4 100 45 37.6 28.3 0.0 2.8 - 11.3 2354 12.2
10/8/23 50.4 1451 39.6 0059 44.5 35.4 1554 S | 180 18.1 26.9 67 33 41.0 33.2 0.0 0.0 - 27.9 0059 12.2
10/7/23 50.8 1536 41.1 0653 45.9 33.8 1536 S | 190 7.2 25.4 71 27 41.6 34.0 0.0 0.0 - 34.1 0058 12.2
10/6/23 47.7 1028 39.3 0229 44.7 24.8 1516 NW | 322 11.0 24.2 68 24 41.0 32.7 0.0 0.0 - 30.5 0102 12.2
10/5/23 47.9 0523 35.2 0104 41.9 35.4 1855 NNW | 347 15.2 26.7 86 25 40.0 32.0 0.0 0.0 - 24.0 0104 12.2
10/4/23 41.5 1640 28.9 0249 35.1 40.7 1540 NNW | 343 23.5 30.8 100 23 38.3 28.5 0.0 8.5 - 12.6 0850 12.2
10/3/23 38.9 1548 24.5 0250 32.9 52.9 2040 S | 170 32.4 30.8 100 69 36.9 24.3 4.1 9.9 - 7.7 0249 12.2
10/2/23 31.5 1427 22.5 0209 27.1 47.7 2011 N | 350 18.9 27.0 100 98 31.4 22.3 12.8 - - 5.2 0835 12.2
10/1/23 30.8 1327 21.5 0632 25.1 35.9 1945 ESE | 122 11.4 25.0 100 97 30.7 21.2 21.2 - - 6.8 2126 12.2
9/30/23 31.0 0104 21.8 1017 26.0 71.5 0313 SSW | 207 31.2 25.9 100 97 30.9 21.5 20.5 - - 2.3 0932 12.2
9/29/23 41.3 1250 30.7 0028 36.2 62.8 0028 S | 180 38.4 27.4 100 26 36.9 28.0 0.0 3.7 - 10.9 0028 12.2
9/28/23 49.8 1644 37.3 0431 43.2 44.9 0329 SSW | 199 25.2 20.9 74 19 41.6 29.1 0.0 0.0 - 23.3 0406 12.2
9/27/23 51.1 1353 39.4 0417 43.8 43.7 0506 S | 191 27.5 22.9 82 27 41.5 31.0 0.0 0.0 - 25.9 0455 12.2
9/26/23 48.6 1421 33.6 0427 40.9 52.8 0428 S | 189 33.4 12.8 64 14 38.6 25.5 7.6 0.0 - 16.3 0409 12.2
9/25/23 45.6 1319 32.7 0642 37.9 49.4 0019 S | 187 34.6 12.9 63 20 34.4 26.1 6.2 0.0 - 16.6 0639 12.2
9/24/23 46.4 1402 33.5 0438 38.2 49.5 0444 SSW | 192 32.6 13.0 61 24 35.5 25.8 7.2 0.0 - 16.5 0444 12.2
9/23/23 43.7 1313 32.9 0533 38.0 45.2 1504 S | 187 28.8 10.8 63 12 34.0 24.8 7.0 0.0 - 18.0 0533 12.2
9/22/23 44.5 1419 25.2 0108 39.5 223.2 0835 W | 281 - 9.7 98 15 35.2 21.4 9.5 6.7 - 3.4 0757 12.2
9/21/23 32.8 0101 25.7 0056 30.3 56.4 2157 SE | 132 35.4 30.2 100 98 32.8 25.4 4.0 22.5 - 7.5 2217 12.2
9/20/23 46.1 1320 32.7 0053 40.0 58.0 2354 SE | 126 23.8 32.4 100 50 42.1 32.6 0.0 0.0 - 15.2 2348 12.2
9/19/23 50.5 1346 38.8 2208 43.0 34.5 1611 ESE | 123 13.3 29.1 74 31 42.5 34.7 0.0 0.0 - 27.9 2207 12.2
9/18/23 49.9 1311 39.8 0640 44.4 33.5 1634 SE | 124 14.8 28.9 76 31 41.8 34.2 0.0 0.0 - 30.1 0011 12.2
9/17/23 52.0 1424 40.1 0545 45.3 28.6 1350 SE | 129 8.2 32.9 81 43 44.6 36.8 0.0 0.0 - 32.8 0515 12.2
9/16/23 51.6 1623 39.4 0628 45.7 31.8 1133 SE | 127 11.4 31.8 81 39 43.6 36.5 0.0 0.0 - 32.1 0356 12.2
9/15/23 51.1 1443 38.9 0514 45.0 26.4 1147 ESE | 123 6.8 31.8 90 38 44.1 34.0 0.0 0.0 - 32.7 0103 12.2
9/14/23 51.4 1541 39.4 0637 43.4 35.1 0104 SE | 126 17.9 32.6 81 45 44.9 35.0 0.0 0.0 - 27.5 0641 12.2
9/13/23 51.1 1423 39.9 2257 45.1 43.1 2209 SE | 126 17.0 34.4 87 42 44.0 37.4 0.0 0.0 - 27.1 2201 12.2
9/12/23 49.7 1316 40.4 0642 44.4 37.0 1514 SE | 130 14.2 35.3 86 53 44.2 37.2 0.0 0.0 - 32.2 0227 12.2
9/11/23 49.0 1337 39.9 2309 43.7 43.4 1752 SE | 128 17.5 39.7 100 64 45.7 38.0 0.0 0.0 - 29.9 0554 12.2
9/10/23 48.9 1442 41.1 0727 43.8 35.8 0133 ESE | 119 16.5 42.4 100 67 47.5 41.1 0.0 0.0 - 30.2 0712 12.2
9/9/23 50.4 1536 38.7 1033 43.5 48.9 0615 ESE | 116 28.6 41.2 100 76 47.6 38.9 0.0 0.0 - 25.6 0615 12.2
9/8/23 52.2 1415 37.5 0246 44.2 65.5 1516 ESE | 116 40.3 21.5 79 23 40.2 29.7 0.0 0.0 - 23.5 0403 12.2
9/7/23 50.5 1325 37.4 0239 42.9 46.3 1621 ESE | 119 26.9 26.6 87 28 42.1 31.7 0.0 0.0 - 24.2 0030 12.2
9/6/23 49.0 1440 36.7 0630 41.9 39.0 0707 ESE | 117 24.0 35.7 100 46 43.5 35.8 0.0 0.0 - 22.8 0637 12.2
9/5/23 49.6 1714 35.6 0514 42.6 30.9 0359 ESE | 118 14.5 32.4 99 39 44.2 32.1 0.0 0.0 - 22.6 0359 12.2
9/4/23 46.7 1801 27.5 0109 40.4 30.0 1537 ESE | 120 10.4 24.9 100 31 40.6 26.5 4.1 1.1 - 17.4 0117 12.2
9/3/23 37.5 0204 27.9 0101 34.1 68.4 1526 ESE | 119 29.1 34.1 100 100 37.6 27.8 0.0 5.6 - 13.8 1504 12.2
9/2/23 42.4 1252 34.1 0139 37.8 79.3 1302 ESE | 109 42.9 37.2 100 69 42.7 30.9 0.0 0.0 - 17.4 0102 12.2
9/1/23 44.3 1541 33.4 2133 38.6 78.1 1436 ESE | 102 48.0 22.2 86 31 36.5 30.0 0.0 0.0 - 16.5 2207 12.2
8/31/23 51.9 1427 38.8 0001 45.9 71.3 1918 ESE | 102 41.9 17.1 61 15 41.0 31.1 0.0 0.0 - 23.0 0003 12.2
8/30/23 60.8 1408 46.0 0057 54.0 42.0 1325 ESE | 107 20.2 17.1 37 11 43.5 34.6 0.0 0.0 - 36.3 0034 12.2
8/29/23 58.0 1522 43.9 0613 51.4 46.3 0632 ESE | 118 25.3 28.4 71 19 45.7 38.5 0.0 0.0 - 31.8 0632 12.2
8/28/23 60.8 1541 48.2 0616 54.4 31.1 1636 ESE | 117 9.6 26.9 54 23 47.1 37.4 0.0 0.0 - 43.1 0610 12.2
8/27/23 57.7 1421 43.7 0607 52.1 30.6 1611 SE | 127 7.9 23.6 69 18 46.1 35.7 0.0 0.0 - 39.6 0550 12.2
8/26/23 53.7 1405 40.0 0552 47.2 35.5 1457 SE | 130 15.6 30.2 74 34 46.6 34.7 0.0 0.0 - 28.8 0548 12.2
8/25/23 53.2 1515 41.3 0626 46.9 41.4 0105 SE | 133 17.6 39.8 99 57 46.9 39.1 0.0 0.0 - 30.7 0343 12.2
8/24/23 49.8 1303 39.8 0536 44.6 49.7 0952 SE | 135 24.8 36.3 98 45 45.4 33.7 0.0 0.0 - 27.7 0537 12.2
8/23/23 52.2 1512 39.8 0350 46.1 25.2 1707 SE | 132 7.5 31.8 82 38 45.1 36.0 0.0 0.0 - 33.6 0608 12.2
8/22/23 45.3 1518 33.5 0505 39.7 37.2 0118 SE | 127 15.7 37.5 100 73 44.2 33.5 0.0 0.0 - 19.5 0121 12.2
8/21/23 41.5 1444 34.0 0050 38.2 48.9 0506 WSW | 238 27.0 38.2 100 100 41.8 34.0 0.0 0.0 - 18.8 0027 12.2
8/20/23 38.9 1307 34.9 0457 36.6 70.9 2001 NE | 49 18.0 36.3 100 85 39.1 34.9 0.0 0.0 - 17.4 2001 12.2
8/19/23 51.0 1039 35.8 0050 44.6 40.7 0953 SW | 219 15.5 30.8 100 35 43.3 35.2 0.0 0.0 - 24.0 2209 12.2
8/18/23 55.1 1429 42.4 1831 48.8 51.0 1806 E | 97 14.2 30.7 88 33 44.5 37.9 0.0 0.0 - 32.9 1814 12.2
8/17/23 54.4 1331 44.8 0321 49.6 43.2 0323 S | 173 17.5 38.7 83 54 48.2 41.2 0.0 0.0 - 33.9 0321 12.2
8/16/23 58.2 1403 44.4 1821 50.8 25.8 1732 WSW | 237 9.4 38.0 96 45 49.4 41.5 0.0 0.0 - 36.7 1749 12.2
8/15/23 54.2 0726 41.8 1427 49.5 31.9 1429 S | 174 7.8 34.3 95 31 47.8 37.9 0.0 0.0 - 30.7 1429 12.2
8/14/23 54.8 1744 44.5 0123 49.2 28.0 0103 NE | 37 12.8 36.8 79 46 47.6 40.8 0.0 0.0 - 34.8 0103 12.2
8/13/23 49.9 1122 41.2 0743 46.5 47.7 1219 ENE | 70 20.7 36.5 98 50 45.7 40.0 0.0 0.0 - 29.9 0729 12.2
8/12/23 57.2 1626 43.2 0240 48.1 37.3 1258 ENE | 73 17.2 36.6 89 40 49.2 39.8 0.0 0.0 - 34.1 0102 12.2
8/11/23 51.9 1442 41.2 2101 45.4 34.8 1114 NE | 53 17.1 39.9 99 49 48.8 39.6 0.0 0.0 - 29.9 2058 12.2
8/10/23 56.4 1410 43.4 0053 49.2 32.6 2250 ENE | 64 13.0 31.7 84 35 46.6 35.9 0.0 0.0 - 33.5 0055 12.2
8/9/23 53.7 1511 42.0 0210 48.7 46.6 1430 SW | 232 21.9 18.4 72 8 41.5 32.1 0.0 0.0 - 32.1 0209 12.2
8/8/23 54.0 1432 40.2 0604 47.0 41.6 1442 WSW | 242 27.1 28.7 82 25 43.5 34.7 0.0 0.0 - 27.8 0455 12.2
8/7/23 56.1 1215 41.9 0046 50.1 54.0 1430 WSW | 238 28.9 29.6 86 19 46.6 38.1 0.0 0.0 - 29.5 2202 12.2
8/6/23 58.5 1554 42.7 0518 51.0 34.6 1556 SW | 223 16.4 31.7 75 12 48.6 38.8 0.0 0.0 - 32.8 0519 12.2
8/5/23 55.7 0927 43.5 0612 50.3 40.9 1320 SW | 234 16.4 23.9 65 9 43.9 33.7 0.0 0.0 - 36.3 0511 12.2
8/4/23 55.8 0929 42.2 0443 49.8 43.6 1721 SW | 232 20.7 24.7 79 12 46.1 33.6 0.0 0.0 - 33.7 0430 12.2
8/3/23 54.4 1251 43.5 0535 48.5 36.5 1812 SW | 232 14.0 31.4 73 16 44.4 34.3 0.0 0.0 - 36.5 0537 12.2
8/2/23 56.5 0936 42.8 2048 48.5 38.7 1924 SW | 229 19.0 29.6 74 31 44.3 36.3 0.0 0.0 - 33.0 0424 12.1
8/1/23 55.5 1230 45.0 2326 49.4 37.3 1710 WSW | 254 23.2 29.8 60 35 44.5 38.0 0.0 0.0 - 34.9 0737 12.2
7/31/23 56.6 1444 46.6 0616 50.8 43.8 1836 WSW | 238 28.1 28.8 52 34 45.3 37.8 0.0 0.0 - 37.0 2027 12.2
7/30/23 57.6 1503 45.3 0325 50.6 41.5 1422 WSW | 242 28.7 29.6 68 21 46.5 38.2 0.0 0.0 - 35.4 0301 12.2
7/29/23 56.9 1402 45.7 0044 51.4 40.6 1556 WSW | 247 24.2 26.5 64 24 45.9 36.8 0.0 0.0 - 35.6 0025 12.2
7/28/23 59.2 1717 44.8 0548 51.4 39.8 1833 SW | 230 25.6 26.8 57 17 45.0 37.3 0.0 0.0 - 34.6 0548 12.2
7/27/23 55.9 1619 43.5 0521 49.5 55.2 1522 WSW | 241 33.3 28.8 64 21 44.1 37.9 0.0 0.0 - 32.6 0547 12.2
7/26/23 58.2 1409 46.5 0040 51.9 44.8 1409 WSW | 244 28.2 31.8 61 36 46.4 40.2 0.0 0.0 - 37.3 0040 12.2
7/25/23 59.8 1446 46.8 0235 52.9 40.4 1634 WSW | 237 25.7 32.3 59 31 47.5 40.5 0.0 0.0 - 37.9 0305 12.2
7/24/23 56.5 1741 45.0 0616 50.7 43.8 1234 WSW | 238 24.3 35.8 90 34 47.0 39.6 0.0 0.0 - 36.5 0606 12.2
7/23/23 62.8 1245 51.0 2048 56.2 36.3 0542 SW | 232 21.1 31.9 70 25 49.5 41.1 0.0 0.0 - - - 12.2
7/22/23 66.1 0737 53.0 2149 59.5 40.6 1549 WSW | 240 20.4 31.0 55 23 48.7 43.0 0.0 0.0 - - - 12.2
7/21/23 67.2 0934 53.0 0408 60.1 35.4 1628 SW | 229 14.8 34.9 54 24 51.2 41.6 0.0 0.0 - - - 12.2
7/20/23 62.4 1338 48.4 0431 56.7 34.3 1622 WSW | 246 17.1 37.6 81 25 51.4 44.9 0.0 0.0 - 40.9 0101 12.2
7/19/23 58.3 1407 48.1 2336 52.9 46.6 1739 WSW | 243 21.0 42.3 82 55 51.0 45.4 0.0 0.0 - 39.9 2336 12.2
7/18/23 60.8 0922 49.3 2137 54.4 50.7 1652 WSW | 246 22.2 43.9 92 52 52.4 45.9 0.0 0.0 - 41.3 1957 12.2
7/17/23 63.3 1247 50.5 0057 57.0 43.4 1408 SSW | 210 24.1 40.1 90 34 53.4 44.0 0.0 0.0 - - - 12.2
7/16/23 67.3 1350 53.3 0101 61.6 40.3 1833 SW | 234 21.7 29.6 59 21 49.9 42.7 0.0 0.0 - - - 12.2
7/15/23 69.9 1458 56.3 0418 62.1 33.9 1516 SW | 235 14.9 23.2 34 14 48.6 41.3 0.0 0.0 - - - 12.2
7/14/23 67.3 1727 49.4 0551 59.4 27.8 2114 N | 6 8.9 22.7 31 14 49.5 38.0 0.0 0.0 - 49.4 0552 12.2
7/13/23 59.8 1809 46.6 0409 54.2 35.2 1633 WSW | 247 16.7 13.4 49 7 47.6 32.7 0.0 0.0 - 39.5 0406 12.2
7/12/23 53.3 0825 45.2 0456 49.9 42.5 1525 WSW | 246 23.3 21.4 53 11 42.5 33.0 0.0 0.0 - 36.0 0500 12.2
7/11/23 54.6 0903 45.0 0437 50.5 39.6 1533 WSW | 240 19.6 23.3 53 16 43.2 34.5 0.0 0.0 - 36.7 0542 12.2
7/10/23 57.7 0948 46.7 0539 51.9 32.9 1557 SW | 216 13.3 24.7 54 14 45.1 35.3 0.0 0.0 - 41.8 0540 12.2
7/9/23 58.4 0703 45.4 2113 49.9 34.0 1553 SW | 224 14.7 34.4 84 36 47.0 38.8 0.0 0.0 - 37.1 2057 12.2
7/8/23 55.9 1740 45.4 0553 50.8 29.8 1533 SW | 219 11.2 34.0 64 40 47.6 39.7 0.0 0.0 - 39.4 0550 12.2
7/7/23 58.1 0932 45.9 2020 49.6 39.2 1605 WSW | 247 14.0 34.5 74 36 46.7 39.9 0.0 0.0 - 38.4 2018 12.2
7/6/23 59.2 0923 46.4 0453 50.9 32.2 1542 WSW | 249 15.1 32.3 67 30 46.4 38.4 0.0 0.0 - 39.3 0454 12.2
7/5/23 57.4 1126 47.1 2055 51.5 42.5 1741 SW | 234 20.0 32.2 66 39 46.9 40.0 0.0 0.0 - 38.2 2056 12.2
7/4/23 55.9 1223 45.1 0724 50.6 35.2 0725 NE | 38 21.5 33.2 67 35 47.0 40.1 0.0 0.0 - 34.7 0723 12.2
7/3/23 55.6 1212 45.3 2115 50.6 46.4 1910 WSW | 238 23.9 33.0 64 36 46.1 39.2 0.0 0.0 - 35.9 2111 12.2
7/2/23 60.9 1258 48.6 0057 54.8 40.8 1833 WSW | 253 18.7 34.6 60 30 48.0 42.6 0.0 0.0 - 40.8 0056 12.2
7/1/23 60.4 1350 50.5 0121 54.9 31.5 1631 WSW | 249 12.6 31.4 63 29 48.1 40.3 0.0 0.0 - - - 12.2
6/30/23 57.7 1456 43.4 0540 50.3 29.6 2212 NNE | 30 13.2 30.2 57 28 47.2 37.1 0.0 0.0 - 34.9 0122 12.2
6/29/23 49.9 1724 38.0 0304 43.4 39.4 2102 NNE | 29 24.3 28.6 70 41 41.0 34.1 0.0 0.0 - 25.3 0305 12.2
6/28/23 44.8 1354 34.3 1823 38.3 43.0 1838 NNE | 21 23.1 29.2 86 41 38.2 32.5 0.0 0.0 - 19.4 1823 12.2
6/27/23 45.9 1240 32.3 0422 40.8 35.7 0028 NE | 35 12.5 24.0 97 20 38.4 29.1 0.0 0.0 - 24.8 0058 12.2
6/26/23 47.0 0934 34.4 0601 38.8 43.2 1803 WSW | 250 15.7 32.8 99 47 40.4 31.2 0.0 0.0 - 21.9 1946 12.2
6/25/23 47.0 0904 33.8 0102 38.6 35.6 1714 WSW | 243 16.8 29.8 96 33 40.0 30.4 0.0 0.0 - 21.4 0443 12.2
6/24/23 44.6 1208 33.9 2106 38.8 36.4 1639 SW | 232 15.9 23.9 85 29 36.4 29.0 0.0 0.0 - 21.0 2052 12.2
6/23/23 43.3 1521 22.6 0522 34.2 32.5 0138 WSW | 245 12.9 27.6 100 44 39.0 21.7 7.7 9.6 - 10.0 0158 12.2
6/22/23 43.8 0856 27.2 0048 34.4 46.4 2307 WSW | 249 19.2 23.4 100 35 35.4 26.4 4.0 7.5 - 9.1 2304 12.2
6/21/23 41.8 0847 27.5 0302 35.3 30.9 1705 WSW | 253 13.1 16.9 77 19 34.3 22.0 6.6 5.5 - 13.3 0101 12.2
6/20/23 35.0 1710 20.0 0549 28.0 52.4 0656 SW | 236 30.2 16.8 100 26 30.0 19.7 18.8 17.3 - -2.6 0521 12.2
6/19/23 34.2 0124 22.2 2319 28.8 81.3 0801 WSW | 250 45.4 22.7 100 40 34.2 21.9 17.5 19.8 - -1.4 0856 12.2
6/18/23 39.3 1547 33.8 0039 36.6 80.0 1550 WSW | 248 51.8 35.1 100 68 37.9 33.8 0.0 0.0 - 16.2 0028 12.2
6/17/23 45.8 1408 36.7 0058 41.0 53.6 2141 WSW | 238 29.8 34.0 100 50 43.1 32.4 0.0 0.0 - 21.4 0017 12.2
6/16/23 47.7 1414 32.6 0533 39.9 39.8 0109 NE | 35 16.3 25.9 100 43 44.0 27.2 2.1 0.0 - 17.8 0244 12.2
6/15/23 46.6 1409 34.9 0056 41.8 53.1 2206 NNE | 27 17.1 33.8 96 48 43.9 31.0 0.0 0.0 - 20.3 0057 12.2
6/14/23 47.4 1142 36.2 0719 40.0 49.1 1600 WSW | 255 15.8 37.5 100 62 43.2 35.6 0.0 0.0 - 24.1 0704 12.2
6/13/23 45.7 1346 32.2 0126 37.2 24.5 1845 WSW | 237 11.8 35.0 100 67 42.1 32.1 0.0 0.0 - 19.4 0213 12.2
6/12/23 39.8 1519 30.2 0210 33.0 26.1 0021 NE | 36 9.6 32.5 100 82 37.8 30.1 0.0 7.4 - 18.8 0143 12.2
6/11/23 36.8 1205 28.3 0235 31.2 34.8 0156 E | 82 13.0 30.1 100 69 35.4 28.2 0.0 17.3 - 13.2 0156 12.2
6/10/23 37.2 1550 28.7 2035 32.9 55.5 1401 SW | 216 19.5 31.6 100 74 36.0 28.5 0.0 6.8 - 11.3 1401 12.2
6/9/23 45.4 0847 32.3 0254 37.4 34.8 0022 NE | 35 16.0 30.6 100 49 38.6 30.6 0.0 0.0 - 20.0 0022 12.2
6/8/23 41.5 1438 29.4 0616 33.4 46.0 0412 NE | 43 21.3 29.9 100 57 39.2